createdAt,value
2023-04-22T00:00:35.720Z,24.20
2023-04-22T00:03:03.830Z,24.11
2023-04-22T00:05:32.060Z,23.18
2023-04-22T00:07:59.855Z,24.61
2023-04-22T00:10:27.785Z,24.87
2023-04-22T00:12:55.350Z,24.07
2023-04-22T00:15:22.974Z,24.58
2023-04-22T00:17:50.879Z,24.92
2023-04-22T00:20:21.624Z,25.16
2023-04-22T00:22:49.456Z,25.55
2023-04-22T00:25:17.372Z,25.75
2023-04-22T00:27:45.948Z,25.27
2023-04-22T00:30:15.546Z,24.96
2023-04-22T00:32:43.241Z,25.40
2023-04-22T00:35:10.965Z,25.64
2023-04-22T00:37:38.657Z,25.74
2023-04-22T00:40:07.061Z,25.83
2023-04-22T00:42:35.794Z,25.79
2023-04-22T00:45:03.486Z,26.30
2023-04-22T00:47:32.549Z,26.01
2023-04-22T00:50:00.896Z,25.44
2023-04-22T00:52:28.448Z,25.86
2023-04-22T00:54:56.247Z,26.03
2023-04-22T00:57:24.280Z,25.84
2023-04-22T00:59:52.718Z,25.79
2023-04-22T01:02:20.308Z,26.25
2023-04-22T01:04:48.163Z,25.43
2023-04-22T01:07:15.683Z,25.79
2023-04-22T01:09:43.603Z,25.25
2023-04-22T01:12:11.855Z,25.33
2023-04-22T01:14:39.884Z,25.25
2023-04-22T01:17:08.103Z,25.62
2023-04-22T01:19:36.118Z,25.93
2023-04-22T01:22:05.041Z,26.31
2023-04-22T01:24:33.674Z,26.11
2023-04-22T01:27:02.046Z,25.99
2023-04-22T01:29:29.834Z,26.07
2023-04-22T01:31:57.998Z,25.45
2023-04-22T01:34:25.670Z,25.77
2023-04-22T01:36:53.191Z,25.55
2023-04-22T01:39:20.808Z,25.39
2023-04-22T01:41:48.640Z,24.83
2023-04-22T01:44:16.517Z,25.05
2023-04-22T01:46:44.056Z,24.89
2023-04-22T01:49:11.651Z,24.98
2023-04-22T01:51:40.018Z,24.87
2023-04-22T01:54:08.510Z,25.14
2023-04-22T01:56:38.735Z,25.51
2023-04-22T01:59:09.000Z,26.01
2023-04-22T02:01:38.324Z,25.88
2023-04-22T02:04:07.391Z,26.31
2023-04-22T02:06:34.993Z,26.39
2023-04-22T02:09:06.709Z,26.53
2023-04-22T02:11:34.721Z,26.53
2023-04-22T02:14:02.289Z,26.41
2023-04-22T02:16:30.066Z,26.49
2023-04-22T02:18:58.101Z,24.84
2023-04-22T02:21:28.310Z,26.21
2023-04-22T02:23:55.882Z,25.37
2023-04-22T02:26:25.051Z,25.84
2023-04-22T02:28:53.225Z,25.48
2023-04-22T02:31:21.085Z,26.30
2023-04-22T02:33:48.858Z,26.37
2023-04-22T02:36:17.029Z,26.51
2023-04-22T02:38:46.302Z,27.19
2023-04-22T02:41:15.860Z,26.87
2023-04-22T02:43:48.518Z,27.09
2023-04-22T02:46:16.613Z,27.18
2023-04-22T02:48:44.878Z,27.06
2023-04-22T02:51:12.566Z,26.26
2023-04-22T02:53:40.330Z,24.01
2023-04-22T02:56:08.750Z,25.11
2023-04-22T02:58:36.447Z,25.21
2023-04-22T03:01:04.624Z,25.21
2023-04-22T03:03:32.646Z,26.18
2023-04-22T03:06:00.654Z,25.84
2023-04-22T03:08:28.605Z,26.10
2023-04-22T03:10:56.353Z,26.18
2023-04-22T03:13:23.987Z,25.73
2023-04-22T03:15:52.182Z,25.82
2023-04-22T03:18:20.451Z,25.50
2023-04-22T03:20:49.402Z,25.62
2023-04-22T03:23:18.143Z,26.11
2023-04-22T03:25:45.985Z,26.06
2023-04-22T03:28:13.652Z,26.24
2023-04-22T03:30:41.839Z,26.13
2023-04-22T03:33:09.732Z,26.14
2023-04-22T03:35:42.573Z,25.98
2023-04-22T03:38:11.647Z,25.73
2023-04-22T03:40:39.254Z,23.89
2023-04-22T03:43:17.858Z,23.28
2023-04-22T03:45:54.461Z,24.69
2023-04-22T03:48:25.744Z,24.66
2023-04-22T03:50:54.635Z,24.65
2023-04-22T03:53:22.825Z,24.88
2023-04-22T03:55:50.401Z,24.85
2023-04-22T03:58:19.592Z,23.53
2023-04-22T04:00:48.314Z,23.90
2023-04-22T04:03:18.017Z,24.33
2023-04-22T04:05:49.110Z,23.75
2023-04-22T04:08:16.949Z,23.62
2023-04-22T04:10:44.792Z,24.49
2023-04-22T04:13:12.469Z,25.06
2023-04-22T04:15:50.937Z,23.75
2023-04-22T04:18:21.605Z,24.76
2023-04-22T04:20:50.256Z,24.04
2023-04-22T04:23:18.158Z,25.08
2023-04-22T04:25:48.593Z,25.17
2023-04-22T04:28:17.679Z,24.80
2023-04-22T04:30:50.871Z,25.48
2023-04-22T04:33:21.669Z,25.37
2023-04-22T04:35:49.248Z,25.16
2023-04-22T04:38:21.637Z,25.08
2023-04-22T04:40:51.246Z,25.36
2023-04-22T04:43:26.050Z,25.05
2023-04-22T04:46:00.997Z,25.30
2023-04-22T04:48:36.221Z,25.34
2023-04-22T04:51:08.830Z,25.12
2023-04-22T04:53:44.873Z,25.18
2023-04-22T04:56:12.908Z,25.63
2023-04-22T04:58:40.973Z,25.45
2023-04-22T05:01:17.220Z,24.65
2023-04-22T05:03:46.947Z,25.08
2023-04-22T05:06:17.236Z,24.57
2023-04-22T05:08:49.981Z,24.49
2023-04-22T05:11:17.733Z,25.35
2023-04-22T05:13:48.356Z,25.75
2023-04-22T05:16:22.528Z,25.47
2023-04-22T05:18:50.121Z,26.18
2023-04-22T05:21:18.575Z,26.44
2023-04-22T05:23:46.466Z,26.71
2023-04-22T05:26:15.591Z,27.25
2023-04-22T05:28:44.874Z,27.89
2023-04-22T05:31:12.484Z,27.43
2023-04-22T05:33:40.339Z,27.72
2023-04-22T05:36:08.074Z,28.18
2023-04-22T05:38:36.196Z,28.40
2023-04-22T05:41:03.753Z,28.69
2023-04-22T05:43:31.861Z,29.45
2023-04-22T05:46:08.653Z,29.52
2023-04-22T05:48:39.028Z,30.17
2023-04-22T05:51:13.335Z,30.42
2023-04-22T05:53:41.004Z,30.79
2023-04-22T05:56:08.621Z,30.44
2023-04-22T05:58:37.697Z,30.88
2023-04-22T06:01:14.788Z,30.91
2023-04-22T06:04:06.277Z,31.38
2023-04-22T06:06:34.648Z,31.80
2023-04-22T06:09:02.462Z,31.66
2023-04-22T06:11:30.255Z,32.01
2023-04-22T06:13:57.865Z,32.54
2023-04-22T06:16:25.563Z,31.88
2023-04-22T06:18:53.238Z,32.82
2023-04-22T06:21:23.467Z,33.12
2023-04-22T06:23:51.084Z,32.79
2023-04-22T06:26:18.735Z,31.97
2023-04-22T06:28:46.920Z,30.40
2023-04-22T06:31:19.784Z,30.18
2023-04-22T06:33:49.117Z,31.10
2023-04-22T06:36:16.876Z,29.72
2023-04-22T06:38:47.935Z,32.16
2023-04-22T06:41:44.351Z,33.99
2023-04-22T06:44:31.179Z,32.90
2023-04-22T06:47:17.432Z,32.85
2023-04-22T06:50:09.529Z,33.65
2023-04-22T06:52:42.326Z,32.99
2023-04-22T06:55:10.398Z,30.03
2023-04-22T06:57:39.033Z,31.97
2023-04-22T07:00:10.507Z,30.41
2023-04-22T07:02:40.466Z,33.36
2023-04-22T07:05:08.410Z,30.69
2023-04-22T07:07:36.066Z,32.72
2023-04-22T07:10:05.533Z,31.76
2023-04-22T07:12:40.396Z,32.31
2023-04-22T07:15:08.629Z,33.45
2023-04-22T07:17:36.227Z,32.92
2023-04-22T07:20:04.140Z,32.27
2023-04-22T07:22:31.957Z,32.94
2023-04-22T07:24:59.531Z,33.59
2023-04-22T07:27:27.102Z,33.21
2023-04-22T07:29:55.857Z,30.99
2023-04-22T07:32:23.400Z,32.07
2023-04-22T07:34:50.962Z,31.37
2023-04-22T07:37:18.464Z,30.86
2023-04-22T07:39:47.125Z,31.48
2023-04-22T07:42:14.684Z,32.07
2023-04-22T07:44:42.217Z,33.04
2023-04-22T07:47:10.346Z,32.98
2023-04-22T07:49:38.539Z,33.37
2023-04-22T07:52:06.538Z,32.45
2023-04-22T07:54:34.275Z,32.39
2023-04-22T07:57:01.908Z,33.25
2023-04-22T07:59:29.400Z,33.41
2023-04-22T08:01:56.997Z,33.02
2023-04-22T08:04:25.976Z,32.83
2023-04-22T08:06:54.861Z,32.65
2023-04-22T08:09:22.437Z,32.79
2023-04-22T08:11:50.030Z,33.37
2023-04-22T08:14:17.562Z,32.74
2023-04-22T08:16:45.246Z,33.10
2023-04-22T08:19:14.013Z,33.49
2023-04-22T08:21:41.767Z,32.87
2023-04-22T08:24:09.348Z,33.14
2023-04-22T08:26:38.194Z,33.68
2023-04-22T08:29:06.317Z,34.15
2023-04-22T08:31:34.803Z,34.20
2023-04-22T08:34:02.399Z,34.72
2023-04-22T08:36:31.117Z,35.54
2023-04-22T08:38:58.651Z,33.40
2023-04-22T08:41:26.403Z,34.65
2023-04-22T08:43:54.025Z,34.56
2023-04-22T08:46:24.180Z,35.58
2023-04-22T08:48:52.812Z,33.66
2023-04-22T08:51:20.838Z,34.75
2023-04-22T08:53:48.525Z,34.00
2023-04-22T08:56:16.824Z,34.25
2023-04-22T08:58:44.415Z,36.15
2023-04-22T09:01:13.395Z,35.74
2023-04-22T09:03:42.252Z,36.99
2023-04-22T09:06:11.791Z,36.17
2023-04-22T09:08:40.190Z,35.49
2023-04-22T09:11:07.775Z,36.59
2023-04-22T09:13:35.679Z,36.41
2023-04-22T09:16:03.390Z,34.93
2023-04-22T09:18:30.946Z,36.89
2023-04-22T09:20:58.518Z,36.56
2023-04-22T09:23:26.486Z,35.38
2023-04-22T09:25:57.512Z,36.93
2023-04-22T09:28:25.066Z,36.43
2023-04-22T09:30:52.587Z,36.34
2023-04-22T09:33:20.314Z,38.47
2023-04-22T09:35:48.105Z,39.61
2023-04-22T09:38:16.740Z,38.77
2023-04-22T09:40:45.057Z,40.41
2023-04-22T09:43:13.083Z,41.67
2023-04-22T09:45:42.883Z,40.95
2023-04-22T09:48:17.197Z,38.02
2023-04-22T09:50:47.939Z,35.99
2023-04-22T09:53:17.759Z,37.15
2023-04-22T09:55:48.395Z,39.21
2023-04-22T09:58:18.228Z,39.93
2023-04-22T10:00:51.383Z,40.54
2023-04-22T10:03:19.294Z,39.47
2023-04-22T10:05:47.033Z,38.83
2023-04-22T10:08:16.212Z,39.72
2023-04-22T10:10:45.812Z,38.18
2023-04-22T10:13:13.616Z,38.29
2023-04-22T10:15:51.737Z,38.31
2023-04-22T10:18:23.134Z,33.85
2023-04-22T10:20:52.701Z,34.90
2023-04-22T10:23:24.896Z,36.85
2023-04-22T10:25:56.493Z,36.39
2023-04-22T10:28:28.734Z,35.69
2023-04-22T10:30:56.401Z,34.70
2023-04-22T10:33:24.098Z,35.29
2023-04-22T10:36:10.600Z,37.69
2023-04-22T10:38:40.316Z,36.80
2023-04-22T10:41:14.210Z,36.90
2023-04-22T10:43:41.618Z,37.34
2023-04-22T10:46:37.030Z,38.01
2023-04-22T10:49:08.347Z,36.65
2023-04-22T10:51:43.711Z,35.64
2023-04-22T10:54:31.912Z,36.56
2023-04-22T10:57:19.478Z,34.87
2023-04-22T10:59:59.092Z,35.68
2023-04-22T11:02:26.965Z,36.05
2023-04-22T11:05:24.639Z,36.09
2023-04-22T11:07:56.001Z,36.02
2023-04-22T11:10:34.078Z,36.57
2023-04-22T11:13:03.186Z,35.63
2023-04-22T11:15:32.246Z,35.77
2023-04-22T11:18:07.367Z,36.52
2023-04-22T11:20:49.711Z,37.22
2023-04-22T11:23:25.619Z,37.48
2023-04-22T11:26:01.821Z,36.78
2023-04-22T11:28:29.731Z,37.36
2023-04-22T11:31:10.399Z,38.73
2023-04-22T11:33:41.316Z,38.70
2023-04-22T11:36:12.313Z,39.12
2023-04-22T11:38:40.121Z,41.20
2023-04-22T11:41:07.726Z,37.52
2023-04-22T11:43:46.274Z,39.00
2023-04-22T11:46:14.283Z,37.35
2023-04-22T11:48:41.880Z,37.06
2023-04-22T11:51:13.846Z,38.16
2023-04-22T11:53:50.577Z,34.29
2023-04-22T11:56:18.146Z,35.50
2023-04-22T11:58:45.682Z,35.20
2023-04-22T12:01:14.226Z,37.65
2023-04-22T12:03:42.386Z,37.46
2023-04-22T12:06:10.416Z,36.90
2023-04-22T12:08:44.494Z,37.46
2023-04-22T12:11:12.409Z,38.16
2023-04-22T12:13:46.371Z,39.19
2023-04-22T12:16:15.496Z,38.30
2023-04-22T12:18:51.352Z,38.25
2023-04-22T12:21:24.672Z,37.71
2023-04-22T12:23:53.481Z,36.31
2023-04-22T12:26:26.538Z,37.19
2023-04-22T12:28:56.248Z,36.82
2023-04-22T12:31:26.073Z,36.71
2023-04-22T12:33:54.130Z,36.85
2023-04-22T12:36:22.255Z,37.07
2023-04-22T12:38:50.026Z,36.26
2023-04-22T12:41:17.616Z,35.25
2023-04-22T12:43:45.239Z,36.35
2023-04-22T12:46:12.873Z,38.71
2023-04-22T12:48:42.792Z,37.54
2023-04-22T12:51:10.692Z,38.14
2023-04-22T12:53:38.188Z,36.99
2023-04-22T12:56:05.780Z,36.75
2023-04-22T12:58:33.311Z,37.70
2023-04-22T13:01:00.902Z,37.78
2023-04-22T13:03:30.164Z,37.77
2023-04-22T13:05:57.942Z,38.07
2023-04-22T13:08:26.010Z,37.91
2023-04-22T13:10:53.877Z,37.68
2023-04-22T13:13:22.812Z,37.89
2023-04-22T13:15:53.597Z,37.25
2023-04-22T13:18:23.030Z,38.04
2023-04-22T13:20:51.598Z,37.35
2023-04-22T13:23:21.672Z,36.57
2023-04-22T13:25:50.353Z,35.76
2023-04-22T13:28:17.981Z,36.84
2023-04-22T13:30:45.768Z,37.88
2023-04-22T13:33:13.396Z,37.24
2023-04-22T13:35:41.322Z,37.12
2023-04-22T13:38:09.003Z,36.55
2023-04-22T13:40:36.616Z,36.35
2023-04-22T13:43:04.422Z,38.79
2023-04-22T13:45:32.171Z,37.39
2023-04-22T13:47:59.832Z,38.11
2023-04-22T13:50:27.864Z,38.28
2023-04-22T13:52:55.748Z,35.97
2023-04-22T13:55:23.382Z,36.54
2023-04-22T13:57:51.940Z,36.72
2023-04-22T14:00:20.933Z,37.46
2023-04-22T14:02:49.169Z,37.61
2023-04-22T14:05:18.511Z,36.49
2023-04-22T14:07:46.122Z,37.43
2023-04-22T14:10:14.257Z,37.11
2023-04-22T14:12:42.229Z,37.79
2023-04-22T14:15:11.239Z,36.57
2023-04-22T14:17:40.242Z,38.76
2023-04-22T14:20:11.136Z,36.31
2023-04-22T14:22:39.072Z,34.42
2023-04-22T14:25:07.814Z,37.31
2023-04-22T14:27:35.663Z,35.19
2023-04-22T14:30:04.970Z,37.15
2023-04-22T14:32:32.660Z,39.50
2023-04-22T14:35:00.504Z,39.09
2023-04-22T14:37:28.028Z,38.70
2023-04-22T14:39:55.809Z,39.22
2023-04-22T14:42:25.285Z,38.28
2023-04-22T14:44:52.841Z,38.87
2023-04-22T14:47:20.460Z,37.61
2023-04-22T14:49:48.092Z,37.01
2023-04-22T14:52:15.803Z,37.27
2023-04-22T14:54:43.438Z,38.26
2023-04-22T14:57:11.055Z,38.63
2023-04-22T14:59:38.791Z,35.01
2023-04-22T15:02:07.244Z,36.89
2023-04-22T15:04:34.960Z,36.73
2023-04-22T15:07:02.774Z,37.58
2023-04-22T15:09:30.387Z,36.59
2023-04-22T15:11:59.602Z,37.38
2023-04-22T15:14:27.174Z,37.79
2023-04-22T15:16:54.743Z,38.01
2023-04-22T15:19:22.373Z,37.17
2023-04-22T15:21:49.879Z,37.12
2023-04-22T15:24:17.465Z,37.90
2023-04-22T15:26:45.114Z,38.09
2023-04-22T15:29:12.931Z,37.47
2023-04-22T15:31:40.625Z,37.50
2023-04-22T15:34:08.179Z,36.90
2023-04-22T15:36:35.829Z,36.84
2023-04-22T15:39:05.469Z,37.24
2023-04-22T15:41:36.010Z,36.34
2023-04-22T15:44:04.192Z,36.85
2023-04-22T15:46:33.099Z,36.77
2023-04-22T15:49:00.942Z,36.88
2023-04-22T15:51:29.674Z,36.38
2023-04-22T15:53:58.330Z,37.08
2023-04-22T15:56:26.087Z,37.67
2023-04-22T15:58:53.601Z,37.18
2023-04-22T16:01:21.423Z,36.98
2023-04-22T16:03:49.345Z,38.81
2023-04-22T16:06:18.100Z,38.31
2023-04-22T16:08:46.173Z,38.47
2023-04-22T16:11:15.217Z,37.24
2023-04-22T16:13:43.017Z,37.88
2023-04-22T16:16:11.160Z,38.44
2023-04-22T16:18:40.019Z,37.44
2023-04-22T16:21:15.540Z,36.75
2023-04-22T16:23:43.410Z,36.79
2023-04-22T16:26:11.038Z,34.89
2023-04-22T16:28:38.636Z,36.13
2023-04-22T16:31:06.349Z,35.84
2023-04-22T16:33:34.109Z,35.71
2023-04-22T16:36:02.179Z,36.03
2023-04-22T16:38:29.867Z,35.64
2023-04-22T16:40:57.533Z,35.80
2023-04-22T16:43:25.112Z,34.57
2023-04-22T16:45:52.916Z,34.96
2023-04-22T16:48:20.829Z,35.06
2023-04-22T16:50:48.496Z,36.63
2023-04-22T16:53:16.129Z,34.60
2023-04-22T16:55:43.814Z,34.84
2023-04-22T16:58:12.314Z,35.49
2023-04-22T17:00:40.285Z,34.65
2023-04-22T17:03:08.058Z,35.27
2023-04-22T17:05:35.704Z,34.38
2023-04-22T17:08:06.257Z,36.26
2023-04-22T17:10:34.857Z,36.12
2023-04-22T17:13:03.087Z,34.54
2023-04-22T17:15:30.652Z,33.58
2023-04-22T17:17:58.433Z,34.51
2023-04-22T17:20:26.186Z,34.72
2023-04-22T17:22:53.801Z,35.52
2023-04-22T17:25:21.350Z,35.33
2023-04-22T17:27:48.934Z,34.79
2023-04-22T17:30:17.218Z,34.52
2023-04-22T17:32:44.924Z,34.84
2023-04-22T17:35:12.632Z,34.01
2023-04-22T17:37:40.280Z,34.66
2023-04-22T17:40:08.635Z,33.81
2023-04-22T17:42:45.729Z,34.42
2023-04-22T17:45:14.106Z,34.34
2023-04-22T17:47:41.824Z,32.02
2023-04-22T17:50:09.990Z,33.09
2023-04-22T17:52:37.770Z,33.10
2023-04-22T17:55:06.072Z,32.57
2023-04-22T17:57:33.665Z,31.75
2023-04-22T18:00:01.425Z,32.18
2023-04-22T18:02:30.438Z,32.49
2023-04-22T18:04:58.065Z,31.88
2023-04-22T18:07:25.738Z,31.34
2023-04-22T18:09:53.444Z,31.11
2023-04-22T18:12:24.161Z,31.41
2023-04-22T18:14:55.848Z,31.17
2023-04-22T18:17:24.409Z,29.80
2023-04-22T18:20:02.804Z,30.81
2023-04-22T18:22:35.342Z,30.92
2023-04-22T18:25:02.961Z,30.68
2023-04-22T18:27:30.591Z,30.07
2023-04-22T18:29:58.252Z,30.15
2023-04-22T18:32:25.964Z,28.94
2023-04-22T18:34:53.564Z,28.95
2023-04-22T18:37:21.764Z,29.44
2023-04-22T18:39:49.467Z,29.38
2023-04-22T18:42:17.048Z,28.63
2023-04-22T18:44:44.735Z,29.15
2023-04-22T18:47:12.490Z,28.75
2023-04-22T18:49:40.127Z,28.03
2023-04-22T18:52:07.956Z,26.25
2023-04-22T18:54:36.157Z,27.86
2023-04-22T18:57:03.900Z,28.23
2023-04-22T18:59:36.427Z,28.45
2023-04-22T19:02:04.480Z,28.28
2023-04-22T19:04:35.090Z,27.26
2023-04-22T19:07:02.701Z,27.80
2023-04-22T19:09:31.782Z,27.80
2023-04-22T19:12:00.763Z,28.13
2023-04-22T19:14:28.691Z,27.53
2023-04-22T19:16:56.631Z,27.64
2023-04-22T19:19:25.720Z,27.84
2023-04-22T19:21:54.044Z,27.54
2023-04-22T19:24:22.019Z,27.56
2023-04-22T19:26:49.774Z,27.28
2023-04-22T19:29:17.351Z,27.21
2023-04-22T19:31:45.094Z,26.59
2023-04-22T19:34:13.316Z,26.61
2023-04-22T19:36:40.847Z,26.19
2023-04-22T19:39:08.632Z,26.75
2023-04-22T19:41:38.074Z,26.76
2023-04-22T19:44:06.314Z,26.60
2023-04-22T19:46:34.993Z,26.87
2023-04-22T19:49:03.178Z,26.66
2023-04-22T19:51:31.223Z,26.88
2023-04-22T19:53:59.054Z,26.37
2023-04-22T19:56:27.120Z,26.81
2023-04-22T19:58:55.651Z,26.64
2023-04-22T20:01:23.602Z,25.53
2023-04-22T20:03:53.035Z,24.98
2023-04-22T20:06:22.694Z,25.98
2023-04-22T20:08:53.661Z,26.12
2023-04-22T20:11:21.749Z,25.86
2023-04-22T20:13:49.742Z,26.04
2023-04-22T20:16:23.327Z,25.92
2023-04-22T20:18:51.200Z,25.49
2023-04-22T20:21:22.407Z,25.86
2023-04-22T20:23:51.265Z,23.61
2023-04-22T20:26:19.886Z,24.65
2023-04-22T20:28:49.547Z,24.38
2023-04-22T20:31:18.673Z,24.82
2023-04-22T20:33:46.845Z,25.43
2023-04-22T20:36:15.304Z,25.39
2023-04-22T20:38:48.782Z,25.27
2023-04-22T20:41:18.847Z,25.55
2023-04-22T20:43:47.239Z,22.72
2023-04-22T20:46:14.804Z,23.69
2023-04-22T20:48:42.709Z,23.86
2023-04-22T20:51:10.288Z,24.78
2023-04-22T20:53:38.182Z,24.17
2023-04-22T20:56:07.818Z,24.40
2023-04-22T20:58:35.641Z,24.52
2023-04-22T21:01:03.749Z,24.65
2023-04-22T21:03:33.830Z,24.78
2023-04-22T21:06:02.456Z,24.14
2023-04-22T21:08:33.742Z,22.97
2023-04-22T21:11:01.502Z,23.76
2023-04-22T21:13:29.247Z,23.16
2023-04-22T21:16:09.948Z,23.97
2023-04-22T21:18:43.768Z,24.42
2023-04-22T21:21:15.833Z,23.84
2023-04-22T21:23:43.812Z,24.53
2023-04-22T21:26:11.491Z,24.80
2023-04-22T21:28:39.315Z,25.03
2023-04-22T21:31:07.448Z,25.01
2023-04-22T21:33:34.974Z,25.02
2023-04-22T21:36:02.617Z,23.70
2023-04-22T21:38:30.261Z,24.79
2023-04-22T21:40:57.840Z,24.90
2023-04-22T21:43:25.379Z,24.12
2023-04-22T21:45:52.947Z,22.10
2023-04-22T21:48:20.983Z,21.89
2023-04-22T21:50:48.802Z,22.42
2023-04-22T21:53:19.435Z,23.55
2023-04-22T21:55:47.072Z,23.27
2023-04-22T21:58:14.976Z,24.04
2023-04-22T22:00:43.567Z,24.12
2023-04-22T22:03:12.691Z,24.28
2023-04-22T22:05:40.445Z,24.09
2023-04-22T22:08:08.499Z,23.69
2023-04-22T22:10:36.160Z,24.20
2023-04-22T22:13:04.224Z,22.25
2023-04-22T22:15:31.825Z,23.67
2023-04-22T22:17:59.989Z,23.61
2023-04-22T22:20:29.683Z,22.40
2023-04-22T22:22:57.641Z,23.80
2023-04-22T22:25:25.293Z,23.11
2023-04-22T22:27:52.907Z,22.87
2023-04-22T22:30:21.643Z,22.53
2023-04-22T22:32:49.524Z,23.64
2023-04-22T22:35:17.167Z,23.69
2023-04-22T22:37:45.065Z,23.50
2023-04-22T22:40:12.911Z,23.52
2023-04-22T22:42:40.683Z,23.01
2023-04-22T22:45:08.937Z,22.14
2023-04-22T22:47:36.668Z,22.80
2023-04-22T22:50:04.802Z,23.43
2023-04-22T22:52:32.753Z,22.72
2023-04-22T22:55:00.315Z,23.23
2023-04-22T22:57:27.836Z,22.70
2023-04-22T22:59:55.603Z,22.98
2023-04-22T23:02:23.531Z,23.19
2023-04-22T23:04:51.854Z,23.25
2023-04-22T23:07:19.397Z,23.38
2023-04-22T23:09:46.955Z,23.46
2023-04-22T23:12:14.706Z,23.01
2023-04-22T23:14:42.831Z,23.26
2023-04-22T23:17:10.797Z,22.25
2023-04-22T23:19:40.834Z,21.97
2023-04-22T23:22:10.568Z,21.87
2023-04-22T23:24:39.030Z,21.90
2023-04-22T23:27:07.192Z,22.73
2023-04-22T23:29:36.673Z,21.98
2023-04-22T23:32:08.084Z,21.78
2023-04-22T23:34:40.901Z,22.86
2023-04-22T23:37:13.545Z,23.45
2023-04-22T23:39:42.059Z,22.60
2023-04-22T23:42:10.304Z,23.01
2023-04-22T23:44:38.014Z,22.98
2023-04-22T23:47:06.394Z,23.06
2023-04-22T23:49:34.181Z,21.43
2023-04-22T23:52:01.847Z,22.19
2023-04-22T23:54:30.172Z,22.95
2023-04-22T23:56:58.119Z,22.27
2023-04-22T23:59:26.033Z,20.97
